Terminal Aerodrome Forecast
Issued by NWS

Home | Current Version | Previous Version | Text Only | Print | Product List | Glossary Off
Versions: 1 2 3 4 5 6 7 8 9 10 11 12 13 14

878
FTUS43 KBIS 161622 AAA
TAFJMS
TAF AMD
KJMS 161622Z 1616/1712 26010KT P6SM FEW250
     FM171100 24006KT P6SM FEW250=

USA.gov is the U.S. government's official web portal to all federal, state and local government web resources and services.